Weather at Skukuza Airport

Public forecast

Using degrees Celsius for public forecast. Weather courtesy of forecast.io.

Closest aviation weather report (METAR) to Skukuza Airport

Report is more than 6 hours old.

Closest report is Kruger Mpumalanga International Airport, 36.5 nm (67.6 km) SW.

2022/11/14 15:00 (retrieved 2 years ago)

FAKN 141500Z 09007KT 9999 BKN020 20/14 Q1024 NOSIG

Closest aviation forecast (TAF) to Skukuza Airport

Forecast is more than 12 hours old.

Closest forecast is Maputo Airport, 78.5 nm (145.4 km) SE.

2023/02/22 18:16 (retrieved 1 year ago)

TAF FQMA 221600Z 2218/2324 15010KT 9999 SCT015 BKN020 TX30/2313Z TN21/2303Z BECMG 2300/2302 24008KT SCT020 BECMG 2312/2314 15014KT BECMG 2319/2321 25008KT FEW025